createdAt,value
2023-03-13T00:01:37.138Z,99453.91
2023-03-13T00:04:05.122Z,99441.38
2023-03-13T00:06:33.899Z,99423.13
2023-03-13T00:09:02.419Z,99441.81
2023-03-13T00:11:30.355Z,99433.59
2023-03-13T00:13:58.601Z,99426.22
2023-03-13T00:16:27.546Z,99423.72
2023-03-13T00:18:57.287Z,99429.06
2023-03-13T00:21:26.431Z,99432.03
2023-03-13T00:23:54.385Z,99428.75
2023-03-13T00:26:23.405Z,99431.63
2023-03-13T00:28:51.612Z,99412.75
2023-03-13T00:31:20.514Z,99417.47
2023-03-13T00:33:53.041Z,99419.28
2023-03-13T00:36:23.116Z,99426.28
2023-03-13T00:38:51.992Z,99404.72
2023-03-13T00:41:20.922Z,99393.06
2023-03-13T00:43:49.262Z,99383.41
2023-03-13T00:46:17.912Z,99383.56
2023-03-13T00:48:45.982Z,99355.66
2023-03-13T00:51:13.972Z,99370.41
2023-03-13T00:53:43.985Z,99362.66
2023-03-13T00:56:12.747Z,99355.66
2023-03-13T00:58:42.012Z,99370.69
2023-03-13T01:01:10.495Z,99354.47
2023-03-13T01:03:38.696Z,99349.13
2023-03-13T01:06:09.203Z,99341.09
2023-03-13T01:08:37.126Z,99334.78
2023-03-13T01:11:07.281Z,99331.28
2023-03-13T01:13:35.323Z,99333.56
2023-03-13T01:16:04.380Z,99298.69
2023-03-13T01:18:32.417Z,99345.06
2023-03-13T01:21:00.280Z,99336.44
2023-03-13T01:23:28.521Z,99335.22
2023-03-13T01:25:56.393Z,99300.72
2023-03-13T01:28:26.100Z,99326.19
2023-03-13T01:30:55.281Z,99316.75
2023-03-13T01:33:23.263Z,99308.91
2023-03-13T01:35:51.254Z,99325.13
2023-03-13T01:38:19.271Z,99331.91
2023-03-13T01:40:47.849Z,99319.16
2023-03-13T01:43:27.926Z,99308.53
2023-03-13T01:46:06.115Z,99301.13
2023-03-13T01:49:07.104Z,99282.91
2023-03-13T01:51:42.075Z,99292.50
2023-03-13T01:54:11.102Z,99292.09
2023-03-13T01:56:41.287Z,99296.03
2023-03-13T01:59:11.008Z,99291.31
2023-03-13T02:01:40.376Z,99285.97
2023-03-13T02:04:08.449Z,99292.31
2023-03-13T02:06:37.342Z,99260.50
2023-03-13T02:09:06.321Z,99271.59
2023-03-13T02:11:41.038Z,99275.06
2023-03-13T02:14:08.980Z,99282.84
2023-03-13T02:16:36.939Z,99247.78
2023-03-13T02:19:09.890Z,99279.59
2023-03-13T02:21:40.765Z,99261.31
2023-03-13T02:24:13.161Z,99246.94
2023-03-13T02:26:42.539Z,99249.84
2023-03-13T02:29:18.132Z,99223.72
2023-03-13T02:31:47.825Z,99265.44
2023-03-13T02:34:17.285Z,99233.41
2023-03-13T02:36:45.301Z,99236.25
2023-03-13T02:39:13.309Z,99242.19
2023-03-13T02:41:43.066Z,99239.13
2023-03-13T02:44:11.152Z,99213.69
2023-03-13T02:46:47.094Z,99219.03
2023-03-13T02:49:23.022Z,99226.59
2023-03-13T02:51:51.724Z,99200.59
2023-03-13T02:54:21.503Z,99228.91
2023-03-13T02:56:53.196Z,99183.72
2023-03-13T02:59:21.210Z,99216.97
2023-03-13T03:01:52.724Z,99183.31
2023-03-13T03:04:21.973Z,99200.22
2023-03-13T03:06:54.637Z,99191.41
2023-03-13T03:09:23.024Z,99197.56
2023-03-13T03:11:56.458Z,99213.94
2023-03-13T03:14:26.743Z,99162.88
2023-03-13T03:16:54.907Z,99181.34
2023-03-13T03:19:22.786Z,99212.94
2023-03-13T03:21:51.400Z,99189.13
2023-03-13T03:24:20.570Z,99143.63
2023-03-13T03:26:48.663Z,99154.06
2023-03-13T03:29:25.414Z,99172.28
2023-03-13T03:31:55.701Z,99168.59
2023-03-13T03:34:24.029Z,99167.41
2023-03-13T03:36:52.918Z,99137.44
2023-03-13T03:39:20.869Z,99151.41
2023-03-13T03:41:48.840Z,99161.44
2023-03-13T03:44:16.855Z,99140.75
2023-03-13T03:47:06.731Z,99163.72
2023-03-13T03:49:38.897Z,99153.44
2023-03-13T03:52:07.923Z,99157.75
2023-03-13T03:54:39.556Z,99150.75
2023-03-13T03:57:07.808Z,99149.34
2023-03-13T03:59:37.506Z,99125.13
2023-03-13T04:02:11.272Z,99140.72
2023-03-13T04:04:41.428Z,99092.75
2023-03-13T04:07:19.065Z,99097.03
2023-03-13T04:09:47.180Z,99116.56
2023-03-13T04:12:23.376Z,99100.13
2023-03-13T04:14:53.959Z,99106.47
2023-03-13T04:17:23.908Z,99108.97
2023-03-13T04:19:51.939Z,99108.75
2023-03-13T04:22:19.822Z,99112.44
2023-03-13T04:24:52.551Z,99102.19
2023-03-13T04:27:22.587Z,99104.63
2023-03-13T04:29:52.114Z,99110.78
2023-03-13T04:32:51.104Z,99070.19
2023-03-13T04:35:45.558Z,99087.81
2023-03-13T04:38:39.981Z,99073.44
2023-03-13T04:41:17.610Z,99045.59
2023-03-13T04:44:08.778Z,99104.66
2023-03-13T04:46:56.978Z,99060.56
2023-03-13T04:49:38.735Z,99062.78
2023-03-13T04:52:19.404Z,99070.19
2023-03-13T04:55:13.268Z,99064.88
2023-03-13T04:57:44.361Z,99079.59
2023-03-13T05:00:22.482Z,99065.28
2023-03-13T05:03:12.374Z,99037.81
2023-03-13T05:06:09.920Z,98994.72
2023-03-13T05:08:59.850Z,99032.69
2023-03-13T05:11:46.546Z,99038.66
2023-03-13T05:14:37.318Z,98999.91
2023-03-13T05:17:28.118Z,99038.03
2023-03-13T05:20:11.243Z,99027.19
2023-03-13T05:23:06.605Z,99032.56
2023-03-13T05:26:00.172Z,99032.56
2023-03-13T05:28:37.364Z,99001.84
2023-03-13T05:31:22.199Z,98981.38
2023-03-13T05:34:13.299Z,99001.88
2023-03-13T05:37:01.586Z,99017.44
2023-03-13T05:39:55.913Z,99001.84
2023-03-13T05:42:49.754Z,99004.72
2023-03-13T05:45:26.773Z,99001.03
2023-03-13T05:48:11.218Z,98971.75
2023-03-13T05:50:57.951Z,98970.66
2023-03-13T05:53:44.593Z,98969.44
2023-03-13T05:56:24.058Z,98979.69
2023-03-13T05:59:13.195Z,98968.84
2023-03-13T06:01:57.094Z,98946.06
2023-03-13T06:04:31.097Z,98981.38
2023-03-13T06:06:59.726Z,98900.25
2023-03-13T06:09:28.438Z,98992.03
2023-03-13T06:11:59.191Z,98961.53
2023-03-13T06:14:27.529Z,98955.97
2023-03-13T06:17:18.605Z,98965.41
2023-03-13T06:19:47.421Z,98940.41
2023-03-13T06:22:15.287Z,98921.38
2023-03-13T06:24:44.669Z,98958.66
2023-03-13T06:27:14.005Z,98879.78
2023-03-13T06:29:41.914Z,98937.72
2023-03-13T06:32:09.937Z,98950.69
2023-03-13T06:34:38.009Z,98933.41
2023-03-13T06:37:06.070Z,98945.13
2023-03-13T06:39:34.222Z,98951.47
2023-03-13T06:42:02.167Z,98962.06
2023-03-13T06:44:31.415Z,98952.44
2023-03-13T06:46:59.367Z,98931.38
2023-03-13T06:49:27.249Z,98939.78
2023-03-13T06:51:55.120Z,98964.81
2023-03-13T06:54:23.120Z,98957.03
2023-03-13T06:56:51.100Z,98965.41
2023-03-13T06:59:19.029Z,98941.63
2023-03-13T07:01:48.280Z,98961.75
2023-03-13T07:04:16.395Z,98967.84
2023-03-13T07:06:44.403Z,98978.09
2023-03-13T07:09:12.551Z,99018.03
2023-03-13T07:11:40.634Z,98962.75
2023-03-13T07:14:16.365Z,98966.22
2023-03-13T07:16:45.606Z,98983.84
2023-03-13T07:19:15.427Z,98958.22
2023-03-13T07:21:44.118Z,98980.97
2023-03-13T07:24:12.195Z,98971.72
2023-03-13T07:26:42.634Z,98973.91
2023-03-13T07:29:16.536Z,98983.41
2023-03-13T07:31:44.492Z,98986.69
2023-03-13T07:34:13.953Z,98976.63
2023-03-13T07:36:42.415Z,98987.69
2023-03-13T07:39:10.386Z,98966.19
2023-03-13T07:41:39.069Z,98958.19
2023-03-13T07:44:08.522Z,98980.91
2023-03-13T07:46:36.433Z,98961.88
2023-03-13T07:49:04.383Z,98967.44
2023-03-13T07:51:43.591Z,98968.22
2023-03-13T07:54:12.319Z,98973.91
2023-03-13T07:56:40.253Z,98943.63
2023-03-13T07:59:08.243Z,99007.94
2023-03-13T08:01:36.301Z,99002.59
2023-03-13T08:04:05.604Z,98976.78
2023-03-13T08:06:36.699Z,99011.38
2023-03-13T08:09:05.030Z,99000.50
2023-03-13T08:11:32.916Z,98999.28
2023-03-13T08:14:01.034Z,99003.44
2023-03-13T08:16:29.479Z,99018.16
2023-03-13T08:18:58.987Z,98994.56
2023-03-13T08:21:27.963Z,98976.75
2023-03-13T08:23:57.882Z,99013.44
2023-03-13T08:26:27.066Z,99029.63
2023-03-13T08:28:55.678Z,99002.16
2023-03-13T08:31:24.319Z,99008.31
2023-03-13T08:33:52.359Z,99008.31
2023-03-13T08:36:21.766Z,99012.47
2023-03-13T08:38:49.790Z,99024.72
2023-03-13T08:41:20.068Z,99001.75
2023-03-13T08:43:48.279Z,99024.69
2023-03-13T08:46:18.424Z,99001.34
2023-03-13T08:48:50.400Z,99015.47
2023-03-13T08:51:18.379Z,99011.56
2023-03-13T08:53:46.354Z,99014.47
2023-03-13T08:56:15.158Z,99018.53
2023-03-13T08:58:44.546Z,99007.03
2023-03-13T09:01:13.460Z,99005.78
2023-03-13T09:03:41.628Z,99015.25
2023-03-13T09:06:09.951Z,99007.88
2023-03-13T09:08:38.354Z,99048.84
2023-03-13T09:11:07.385Z,99040.84
2023-03-13T09:13:36.167Z,99029.97
2023-03-13T09:16:06.532Z,99021.34
2023-03-13T09:18:34.743Z,99025.22
2023-03-13T09:21:02.686Z,99045.91
2023-03-13T09:23:30.677Z,99037.03
2023-03-13T09:25:58.680Z,99028.19
2023-03-13T09:28:26.928Z,99064.09
2023-03-13T09:30:54.924Z,99044.81
2023-03-13T09:33:24.945Z,99028.03
2023-03-13T09:35:53.120Z,99025.69
2023-03-13T09:38:21.434Z,99034.63
2023-03-13T09:41:04.960Z,99036.25
2023-03-13T09:43:40.434Z,99038.72
2023-03-13T09:46:12.586Z,99048.56
2023-03-13T09:48:42.735Z,99052.94
2023-03-13T09:51:12.791Z,99057.81
2023-03-13T09:53:42.962Z,99032.59
2023-03-13T09:56:15.654Z,99046.81
2023-03-13T09:58:46.085Z,99032.81
2023-03-13T10:01:15.061Z,99052.16
2023-03-13T10:03:48.236Z,99050.53
2023-03-13T10:06:19.502Z,99047.00
2023-03-13T10:08:47.499Z,99051.13
2023-03-13T10:11:19.660Z,99059.19
2023-03-13T10:13:49.054Z,99042.78
2023-03-13T10:16:19.501Z,99045.28
2023-03-13T10:18:50.033Z,99064.13
2023-03-13T10:21:19.534Z,99051.19
2023-03-13T10:23:49.496Z,99060.41
2023-03-13T10:26:18.639Z,99047.31
2023-03-13T10:28:46.793Z,99040.34
2023-03-13T10:31:17.657Z,99017.34
2023-03-13T10:33:45.635Z,99048.59
2023-03-13T10:36:15.251Z,99044.41
2023-03-13T10:38:49.541Z,99029.97
2023-03-13T10:41:25.630Z,99051.66
2023-03-13T10:43:54.155Z,99043.44
2023-03-13T10:46:29.268Z,99048.97
2023-03-13T10:48:57.442Z,99045.78
2023-03-13T10:51:37.540Z,99047.63
2023-03-13T10:54:15.151Z,99049.22
2023-03-13T10:56:43.215Z,99048.06
2023-03-13T10:59:22.885Z,99054.63
2023-03-13T11:01:51.081Z,99031.59
2023-03-13T11:04:29.851Z,99034.72
2023-03-13T11:07:03.237Z,99010.69
2023-03-13T11:09:31.420Z,99031.91
2023-03-13T11:12:03.496Z,99030.59
2023-03-13T11:14:31.417Z,99040.03
2023-03-13T11:17:02.846Z,99045.91
2023-03-13T11:19:43.869Z,99035.81
2023-03-13T11:22:28.609Z,99006.78
2023-03-13T11:25:03.211Z,99046.44
2023-03-13T11:27:35.270Z,99041.75
2023-03-13T11:30:12.972Z,99010.28
2023-03-13T11:32:43.348Z,99033.72
2023-03-13T11:35:19.054Z,99041.75
2023-03-13T11:37:48.557Z,99020.22
2023-03-13T11:40:20.733Z,99023.50
2023-03-13T11:42:57.266Z,99029.50
2023-03-13T11:45:49.595Z,99037.59
2023-03-13T11:48:20.701Z,99014.13
2023-03-13T11:50:49.968Z,99003.19
2023-03-13T11:53:25.968Z,99013.50
2023-03-13T11:55:59.338Z,99022.72
2023-03-13T11:58:33.315Z,98999.94
2023-03-13T12:01:03.010Z,99006.94
2023-03-13T12:03:36.295Z,99003.91
2023-03-13T12:06:04.425Z,99023.81
2023-03-13T12:08:36.382Z,99044.16
2023-03-13T12:11:07.824Z,99039.59
2023-03-13T12:13:37.244Z,99035.38
2023-03-13T12:16:07.999Z,99026.41
2023-03-13T12:18:36.792Z,99020.72
2023-03-13T12:21:06.748Z,99013.31
2023-03-13T12:23:43.357Z,99000.63
2023-03-13T12:26:13.530Z,98994.25
2023-03-13T12:28:44.286Z,99000.19
2023-03-13T12:31:20.030Z,98995.03
2023-03-13T12:33:51.531Z,98986.56
2023-03-13T12:36:21.543Z,98968.88
2023-03-13T12:38:52.648Z,98956.19
2023-03-13T12:41:24.557Z,98971.28
2023-03-13T12:44:07.335Z,98971.75
2023-03-13T12:46:44.181Z,98946.88
2023-03-13T12:49:19.970Z,98941.03
2023-03-13T12:51:54.918Z,98939.53
2023-03-13T12:54:39.349Z,98925.16
2023-03-13T12:57:16.261Z,98929.19
2023-03-13T12:59:45.270Z,98919.75
2023-03-13T13:02:16.415Z,98918.63
2023-03-13T13:04:45.377Z,98877.59
2023-03-13T13:07:21.709Z,98916.38
2023-03-13T13:10:03.842Z,98909.06
2023-03-13T13:12:32.015Z,98852.66
2023-03-13T13:15:04.114Z,98894.66
2023-03-13T13:18:01.332Z,98884.22
2023-03-13T13:20:38.498Z,98884.06
2023-03-13T13:23:23.934Z,98898.84
2023-03-13T13:25:53.599Z,98872.84
2023-03-13T13:28:27.518Z,98869.72
2023-03-13T13:30:56.502Z,98863.53
2023-03-13T13:33:41.184Z,98877.38
2023-03-13T13:36:31.555Z,98850.09
2023-03-13T13:38:59.719Z,98842.06
2023-03-13T13:41:35.458Z,98840.53
2023-03-13T13:44:26.773Z,98806.16
2023-03-13T13:46:56.165Z,98826.28
2023-03-13T13:49:24.506Z,98854.91
2023-03-13T13:52:42.041Z,98832.03
2023-03-13T13:55:33.234Z,98828.78
2023-03-13T13:58:04.806Z,98809.66
2023-03-13T14:00:38.203Z,98822.00
2023-03-13T14:03:17.879Z,98808.63
2023-03-13T14:05:45.900Z,98803.41
2023-03-13T14:08:17.298Z,98802.00
2023-03-13T14:10:46.890Z,98788.97
2023-03-13T14:13:17.206Z,98773.44
2023-03-13T14:15:46.294Z,98788.22
2023-03-13T14:18:17.904Z,98802.53
2023-03-13T14:20:56.891Z,98793.53
2023-03-13T14:23:32.593Z,98773.06
2023-03-13T14:26:00.631Z,98762.66
2023-03-13T14:28:30.382Z,98774.09
2023-03-13T14:30:58.958Z,98759.59
2023-03-13T14:33:27.812Z,98759.38
2023-03-13T14:35:57.684Z,98754.06
2023-03-13T14:38:28.005Z,98777.56
2023-03-13T14:40:56.497Z,98735.44
2023-03-13T14:43:33.348Z,98769.81
2023-03-13T14:46:01.438Z,98739.69
2023-03-13T14:48:32.858Z,98732.03
2023-03-13T14:51:15.217Z,98739.09
2023-03-13T14:53:55.102Z,98739.78
2023-03-13T14:56:30.952Z,98743.22
2023-03-13T14:59:09.247Z,98745.81
2023-03-13T15:01:37.218Z,98735.69
2023-03-13T15:04:05.390Z,98745.97
2023-03-13T15:06:33.436Z,98748.91
2023-03-13T15:09:18.795Z,98758.28
2023-03-13T15:11:55.362Z,98732.97
2023-03-13T15:14:40.758Z,98738.13
2023-03-13T15:17:17.147Z,98746.78
2023-03-13T15:19:46.469Z,98742.31
2023-03-13T15:22:15.022Z,98735.81
2023-03-13T15:24:45.253Z,98728.13
2023-03-13T15:27:18.012Z,98741.38
2023-03-13T15:29:47.905Z,98745.47
2023-03-13T15:32:19.880Z,98728.34
2023-03-13T15:34:48.000Z,98737.47
2023-03-13T15:37:15.916Z,98735.22
2023-03-13T15:39:43.965Z,98735.34
2023-03-13T15:42:11.868Z,98731.78
2023-03-13T15:44:39.934Z,98742.91
2023-03-13T15:47:11.512Z,98732.22
2023-03-13T15:49:39.489Z,98718.25
2023-03-13T15:52:15.277Z,98717.06
2023-03-13T15:54:43.269Z,98721.81
2023-03-13T15:57:13.107Z,98720.56
2023-03-13T15:59:41.488Z,98712.59
2023-03-13T16:02:15.254Z,98699.47
2023-03-13T16:04:43.322Z,98703.97
2023-03-13T16:07:12.084Z,98705.13
2023-03-13T16:09:39.990Z,98706.53
2023-03-13T16:12:08.542Z,98707.59
2023-03-13T16:14:36.528Z,98703.72
2023-03-13T16:17:05.403Z,98694.84
2023-03-13T16:19:34.737Z,98691.81
2023-03-13T16:22:02.725Z,98697.19
2023-03-13T16:24:31.157Z,98689.25
2023-03-13T16:26:59.245Z,98680.50
2023-03-13T16:29:27.825Z,98672.81
2023-03-13T16:31:56.033Z,98673.66
2023-03-13T16:34:24.438Z,98668.47
2023-03-13T16:36:54.247Z,98676.00
2023-03-13T16:39:22.313Z,98663.00
2023-03-13T16:41:50.372Z,98662.06
2023-03-13T16:44:18.373Z,98664.06
2023-03-13T16:47:02.822Z,98656.34
2023-03-13T16:49:33.494Z,98662.97
2023-03-13T16:52:02.891Z,98666.69
2023-03-13T16:54:30.885Z,98662.81
2023-03-13T16:56:58.815Z,98651.97
2023-03-13T16:59:26.931Z,98656.13
2023-03-13T17:01:54.891Z,98666.78
2023-03-13T17:04:22.992Z,98656.47
2023-03-13T17:06:52.642Z,98667.97
2023-03-13T17:09:22.038Z,98667.38
2023-03-13T17:11:49.981Z,98671.00
2023-03-13T17:14:17.902Z,98665.25
2023-03-13T17:16:45.876Z,98652.56
2023-03-13T17:19:14.258Z,98660.03
2023-03-13T17:21:42.177Z,98658.72
2023-03-13T17:24:10.051Z,98663.53
2023-03-13T17:26:39.920Z,98671.00
2023-03-13T17:29:08.143Z,98667.47
2023-03-13T17:31:38.583Z,98671.44
2023-03-13T17:34:06.787Z,98677.28
2023-03-13T17:36:35.277Z,98670.78
2023-03-13T17:39:05.413Z,98673.94
2023-03-13T17:41:34.881Z,98671.06
2023-03-13T17:44:04.725Z,98676.22
2023-03-13T17:46:35.923Z,98682.38
2023-03-13T17:49:04.017Z,98671.31
2023-03-13T17:51:32.866Z,98682.03
2023-03-13T17:54:00.819Z,98678.41
2023-03-13T17:56:29.538Z,98665.75
2023-03-13T17:58:58.548Z,98669.84
2023-03-13T18:01:28.569Z,98683.16
2023-03-13T18:03:56.687Z,98681.53
2023-03-13T18:06:25.890Z,98675.63
2023-03-13T18:08:54.537Z,98671.34
2023-03-13T18:11:22.625Z,98665.44
2023-03-13T18:13:50.717Z,98684.94
2023-03-13T18:16:30.330Z,98675.69
2023-03-13T18:18:59.735Z,98668.78
2023-03-13T18:21:27.794Z,98671.28
2023-03-13T18:23:57.055Z,98675.81
2023-03-13T18:26:27.179Z,98663.22
2023-03-13T18:29:00.035Z,98671.81
2023-03-13T18:31:29.807Z,98668.53
2023-03-13T18:34:00.151Z,98664.88
2023-03-13T18:36:28.305Z,98657.75
2023-03-13T18:38:56.399Z,98668.59
2023-03-13T18:41:24.602Z,98667.81
2023-03-13T18:43:52.655Z,98663.34
2023-03-13T18:46:21.840Z,98662.56
2023-03-13T18:48:49.863Z,98671.72
2023-03-13T18:51:19.721Z,98670.75
2023-03-13T18:53:47.800Z,98668.28
2023-03-13T18:56:20.529Z,98667.50
2023-03-13T18:58:50.511Z,98674.84
2023-03-13T19:01:19.507Z,98671.78
2023-03-13T19:03:47.565Z,98666.25
2023-03-13T19:06:21.840Z,98669.13
2023-03-13T19:08:50.422Z,98674.03
2023-03-13T19:11:19.136Z,98678.13
2023-03-13T19:13:47.316Z,98685.28
2023-03-13T19:16:16.797Z,98704.34
2023-03-13T19:18:44.802Z,98693.28
2023-03-13T19:21:22.002Z,98675.94
2023-03-13T19:23:50.158Z,98675.94
2023-03-13T19:26:19.898Z,98673.28
2023-03-13T19:28:47.961Z,98685.16
2023-03-13T19:31:17.629Z,98676.16
2023-03-13T19:33:47.815Z,98680.25
2023-03-13T19:36:16.670Z,98678.59
2023-03-13T19:38:46.047Z,98681.91
2023-03-13T19:41:14.471Z,98673.53
2023-03-13T19:43:42.694Z,98677.22
2023-03-13T19:46:22.374Z,98677.81
2023-03-13T19:48:51.288Z,98689.88
2023-03-13T19:51:19.269Z,98678.03
2023-03-13T19:53:48.750Z,98678.03
2023-03-13T19:56:18.247Z,98676.59
2023-03-13T19:58:46.699Z,98686.41
2023-03-13T20:01:17.428Z,98677.41
2023-03-13T20:03:45.792Z,98672.50
2023-03-13T20:06:18.381Z,98672.94
2023-03-13T20:08:46.489Z,98681.31
2023-03-13T20:11:16.039Z,98686.41
2023-03-13T20:13:43.984Z,98688.88
2023-03-13T20:16:12.456Z,98686.81
2023-03-13T20:18:40.521Z,98687.25
2023-03-13T20:21:08.444Z,98682.31
2023-03-13T20:23:36.423Z,98701.53
2023-03-13T20:26:05.960Z,98709.31
2023-03-13T20:28:35.293Z,98713.59
2023-03-13T20:31:03.263Z,98705.66
2023-03-13T20:33:31.411Z,98709.13
2023-03-13T20:36:00.264Z,98710.72
2023-03-13T20:38:28.393Z,98719.94
2023-03-13T20:40:57.237Z,98717.88
2023-03-13T20:43:25.260Z,98730.78
2023-03-13T20:45:54.579Z,98736.47
2023-03-13T20:48:22.963Z,98732.63
2023-03-13T20:50:51.697Z,98742.38
2023-03-13T20:53:19.665Z,98733.78
2023-03-13T20:55:48.322Z,98748.91
2023-03-13T20:58:16.455Z,98768.50
2023-03-13T21:00:44.751Z,98773.44
2023-03-13T21:03:15.069Z,98777.28
2023-03-13T21:05:43.113Z,98792.41
2023-03-13T21:08:11.062Z,98804.03
2023-03-13T21:10:39.290Z,98815.03
2023-03-13T21:13:07.313Z,98838.94
2023-03-13T21:15:35.729Z,98849.72
2023-03-13T21:18:03.817Z,98862.69
2023-03-13T21:20:33.284Z,98884.63
2023-03-13T21:23:01.264Z,98900.31
2023-03-13T21:25:29.159Z,98895.84
2023-03-13T21:27:57.069Z,98908.31
2023-03-13T21:30:25.353Z,98931.53
2023-03-13T21:32:54.648Z,98925.19
2023-03-13T21:35:23.371Z,98932.00
2023-03-13T21:37:52.609Z,98942.28
2023-03-13T21:40:20.576Z,98959.44
2023-03-13T21:42:48.534Z,98967.53
2023-03-13T21:45:16.507Z,98977.84
2023-03-13T21:47:44.534Z,98998.16
2023-03-13T21:50:13.361Z,99015.19
2023-03-13T21:52:42.375Z,99017.16
2023-03-13T21:55:12.845Z,99015.69
2023-03-13T21:57:41.072Z,99025.84
2023-03-13T22:00:10.615Z,99040.84
2023-03-13T22:02:38.642Z,99062.75
2023-03-13T22:05:07.716Z,99080.38
2023-03-13T22:07:35.910Z,99089.06
2023-03-13T22:10:03.833Z,99107.69
2023-03-13T22:12:33.203Z,99107.53
2023-03-13T22:15:01.191Z,99126.72
2023-03-13T22:17:29.078Z,99136.31
2023-03-13T22:19:57.027Z,99150.28
2023-03-13T22:22:24.894Z,99156.50
2023-03-13T22:24:54.144Z,99167.84
2023-03-13T22:27:23.374Z,99166.09
2023-03-13T22:29:52.929Z,99184.03
2023-03-13T22:32:20.991Z,99195.91
2023-03-13T22:34:49.118Z,99201.53
2023-03-13T22:37:17.161Z,99213.78
2023-03-13T22:39:45.047Z,99218.47
2023-03-13T22:42:12.981Z,99233.72
2023-03-13T22:44:40.895Z,99237.09
2023-03-13T22:47:10.234Z,99239.75
2023-03-13T22:49:38.369Z,99246.94
2023-03-13T22:52:06.286Z,99265.00
2023-03-13T22:54:34.185Z,99268.47
2023-03-13T22:57:02.154Z,99283.00
2023-03-13T22:59:30.088Z,99284.09
2023-03-13T23:01:58.013Z,99305.16
2023-03-13T23:04:27.312Z,99323.69
2023-03-13T23:06:55.288Z,99325.22
2023-03-13T23:09:23.138Z,99331.19
2023-03-13T23:11:51.033Z,99346.72
2023-03-13T23:14:18.906Z,99343.47
2023-03-13T23:16:47.063Z,99354.19
2023-03-13T23:19:14.992Z,99369.72
2023-03-13T23:21:44.394Z,99359.94
2023-03-13T23:24:12.392Z,99381.50
2023-03-13T23:26:40.260Z,99387.31
2023-03-13T23:29:08.378Z,99404.91
2023-03-13T23:31:36.685Z,99411.75
2023-03-13T23:34:04.616Z,99409.59
2023-03-13T23:36:32.548Z,99419.28
2023-03-13T23:39:02.972Z,99439.06
2023-03-13T23:41:31.206Z,99430.75
2023-03-13T23:44:00.899Z,99418.44
2023-03-13T23:46:28.940Z,99441.31
2023-03-13T23:48:57.324Z,99456.59
2023-03-13T23:51:25.538Z,99467.22
2023-03-13T23:53:53.391Z,99468.75
2023-03-13T23:56:24.614Z,99473.22
2023-03-13T23:58:54.042Z,99485.31
